createdAt,value
2023-05-16T00:01:18.248Z,8.25
2023-05-16T00:03:45.416Z,8.85
2023-05-16T00:06:12.169Z,8.55
2023-05-16T00:08:38.777Z,8.32
2023-05-16T00:11:05.416Z,8.20
2023-05-16T00:13:32.069Z,7.50
2023-05-16T00:16:02.408Z,7.38
2023-05-16T00:18:29.094Z,7.95
2023-05-16T00:20:56.314Z,7.40
2023-05-16T00:23:22.725Z,7.90
2023-05-16T00:25:49.222Z,7.30
2023-05-16T00:28:15.811Z,7.30
2023-05-16T00:30:42.228Z,7.07
2023-05-16T00:33:08.797Z,7.88
2023-05-16T00:35:35.273Z,7.57
2023-05-16T00:38:01.677Z,7.63
2023-05-16T00:40:28.474Z,7.28
2023-05-16T00:42:54.965Z,8.27
2023-05-16T00:45:21.576Z,7.40
2023-05-16T00:47:48.357Z,6.55
2023-05-16T00:50:15.136Z,7.07
2023-05-16T00:52:41.784Z,6.70
2023-05-16T00:55:10.443Z,6.43
2023-05-16T00:57:38.591Z,6.68
2023-05-16T01:00:12.266Z,6.75
2023-05-16T01:02:38.689Z,6.05
2023-05-16T01:05:05.501Z,5.75
2023-05-16T01:07:32.120Z,5.38
2023-05-16T01:09:59.010Z,5.22
2023-05-16T01:12:33.730Z,4.78
2023-05-16T01:15:13.529Z,4.32
2023-05-16T01:18:01.005Z,4.05
2023-05-16T01:20:36.766Z,3.90
2023-05-16T01:23:15.482Z,3.10
2023-05-16T01:25:45.627Z,2.75
2023-05-16T01:28:16.385Z,2.45
2023-05-16T01:30:43.105Z,2.42
2023-05-16T01:33:10.417Z,2.20
2023-05-16T01:35:43.617Z,1.92
2023-05-16T01:38:26.341Z,2.05
2023-05-16T01:41:02.294Z,2.17
2023-05-16T01:43:42.709Z,1.75
2023-05-16T01:46:31.590Z,1.88
2023-05-16T01:49:08.732Z,1.77
2023-05-16T01:51:39.928Z,1.55
2023-05-16T01:54:11.146Z,1.58
2023-05-16T01:56:38.113Z,1.30
2023-05-16T01:59:05.478Z,1.00
2023-05-16T02:01:32.165Z,0.93
2023-05-16T02:03:59.056Z,1.00
2023-05-16T02:06:26.524Z,1.00
2023-05-16T02:08:53.150Z,0.98
2023-05-16T02:11:19.837Z,1.20
2023-05-16T02:13:46.599Z,1.92
2023-05-16T02:16:13.306Z,1.67
2023-05-16T02:18:39.737Z,1.67
2023-05-16T02:21:06.442Z,1.70
2023-05-16T02:23:32.818Z,2.30
2023-05-16T02:25:59.320Z,2.60
2023-05-16T02:28:25.824Z,2.42
2023-05-16T02:30:59.287Z,2.45
2023-05-16T02:33:27.447Z,2.65
2023-05-16T02:35:54.593Z,2.83
2023-05-16T02:38:21.282Z,2.38
2023-05-16T02:40:48.412Z,2.58
2023-05-16T02:43:14.842Z,2.83
2023-05-16T02:45:41.252Z,2.38
2023-05-16T02:48:07.792Z,2.95
2023-05-16T02:50:34.641Z,2.75
2023-05-16T02:53:02.376Z,2.67
2023-05-16T02:55:29.297Z,3.38
2023-05-16T02:57:55.681Z,2.92
2023-05-16T03:00:22.663Z,2.95
2023-05-16T03:02:49.466Z,2.92
2023-05-16T03:05:16.956Z,3.38
2023-05-16T03:07:43.333Z,2.55
2023-05-16T03:10:09.882Z,3.92
2023-05-16T03:12:36.452Z,3.30
2023-05-16T03:15:04.030Z,2.75
2023-05-16T03:17:30.796Z,3.08
2023-05-16T03:19:57.311Z,3.35
2023-05-16T03:22:24.713Z,3.22
2023-05-16T03:24:51.316Z,3.10
2023-05-16T03:27:17.705Z,3.05
2023-05-16T03:29:44.044Z,2.90
2023-05-16T03:32:12.706Z,3.15
2023-05-16T03:34:39.324Z,3.03
2023-05-16T03:37:06.461Z,3.15
2023-05-16T03:39:32.804Z,4.60
2023-05-16T03:41:59.356Z,2.60
2023-05-16T03:44:25.759Z,3.22
2023-05-16T03:46:52.878Z,3.45
2023-05-16T03:49:20.887Z,3.83
2023-05-16T03:51:47.359Z,2.67
2023-05-16T03:54:13.946Z,3.17
2023-05-16T03:56:40.461Z,2.88
2023-05-16T03:59:07.067Z,3.33
2023-05-16T04:01:33.480Z,3.08
2023-05-16T04:04:00.238Z,3.33
2023-05-16T04:06:27.206Z,2.75
2023-05-16T04:08:53.773Z,3.22
2023-05-16T04:11:20.120Z,3.60
2023-05-16T04:13:46.567Z,3.25
2023-05-16T04:16:13.030Z,3.08
2023-05-16T04:18:39.565Z,3.28
2023-05-16T04:21:06.233Z,3.40
2023-05-16T04:23:32.896Z,3.28
2023-05-16T04:25:59.771Z,3.72
2023-05-16T04:28:26.355Z,2.40
2023-05-16T04:30:53.835Z,2.85
2023-05-16T04:33:20.214Z,2.30
2023-05-16T04:35:46.586Z,3.08
2023-05-16T04:38:13.140Z,2.60
2023-05-16T04:40:41.702Z,2.33
2023-05-16T04:45:36.745Z,2.83
2023-05-16T04:48:04.304Z,2.47
2023-05-16T04:50:30.708Z,3.22
2023-05-16T04:52:57.479Z,3.55
2023-05-16T04:55:24.331Z,2.70
2023-05-16T04:57:51.123Z,2.70
2023-05-16T05:00:17.676Z,2.58
2023-05-16T05:02:44.883Z,4.18
2023-05-16T05:05:11.392Z,2.67
2023-05-16T05:07:38.399Z,3.28
2023-05-16T05:10:07.313Z,2.88
2023-05-16T05:12:34.165Z,3.03
2023-05-16T05:15:00.563Z,3.08
2023-05-16T05:17:27.124Z,2.95
2023-05-16T05:19:53.839Z,2.92
2023-05-16T05:22:20.591Z,3.47
2023-05-16T05:24:47.028Z,2.80
2023-05-16T05:27:13.564Z,2.80
2023-05-16T05:29:40.226Z,2.70
2023-05-16T05:32:07.105Z,3.35
2023-05-16T05:34:33.519Z,3.88
2023-05-16T05:37:00.097Z,2.53
2023-05-16T05:39:26.833Z,2.47
2023-05-16T05:41:53.256Z,3.47
2023-05-16T05:44:19.688Z,2.70
2023-05-16T05:46:46.370Z,2.25
2023-05-16T05:49:12.998Z,2.67
2023-05-16T05:51:39.631Z,3.60
2023-05-16T05:54:06.311Z,2.40
2023-05-16T05:56:32.718Z,2.20
2023-05-16T05:58:59.529Z,2.60
2023-05-16T06:01:26.002Z,2.38
2023-05-16T06:03:52.338Z,4.00
2023-05-16T06:06:19.934Z,2.80
2023-05-16T06:08:46.338Z,1.70
2023-05-16T06:11:12.726Z,2.47
2023-05-16T06:13:39.110Z,3.83
2023-05-16T06:16:07.508Z,3.40
2023-05-16T06:18:35.640Z,2.38
2023-05-16T06:21:03.975Z,2.40
2023-05-16T06:23:31.186Z,3.28
2023-05-16T06:25:58.211Z,2.10
2023-05-16T06:28:26.209Z,2.35
2023-05-16T06:30:52.608Z,2.40
2023-05-16T06:33:19.432Z,2.40
2023-05-16T06:35:46.377Z,2.95
2023-05-16T06:38:12.885Z,3.00
2023-05-16T06:40:41.162Z,2.47
2023-05-16T06:43:09.551Z,2.70
2023-05-16T06:45:36.410Z,2.22
2023-05-16T06:48:02.893Z,2.42
2023-05-16T06:50:29.548Z,2.22
2023-05-16T06:52:58.368Z,2.20
2023-05-16T06:55:26.437Z,3.13
2023-05-16T06:57:53.052Z,2.22
2023-05-16T07:00:19.918Z,2.58
2023-05-16T07:02:46.892Z,1.75
2023-05-16T07:05:16.707Z,2.30
2023-05-16T07:07:43.428Z,2.10
2023-05-16T07:10:10.373Z,1.88
2023-05-16T07:12:39.018Z,3.28
2023-05-16T07:17:35.263Z,2.20
2023-05-16T07:20:05.120Z,2.80
2023-05-16T07:22:32.033Z,2.03
2023-05-16T07:25:00.874Z,2.35
2023-05-16T07:27:28.196Z,2.40
2023-05-16T07:29:54.827Z,2.72
2023-05-16T07:32:21.434Z,2.13
2023-05-16T07:34:48.256Z,2.10
2023-05-16T07:37:16.397Z,2.25
2023-05-16T07:39:43.018Z,2.78
2023-05-16T07:42:09.830Z,1.90
2023-05-16T07:44:36.361Z,1.90
2023-05-16T07:47:05.379Z,1.55
2023-05-16T07:49:31.849Z,1.92
2023-05-16T07:51:58.552Z,2.05
2023-05-16T07:54:25.090Z,1.83
2023-05-16T07:56:51.462Z,1.88
2023-05-16T07:59:18.026Z,1.85
2023-05-16T08:01:45.083Z,2.10
2023-05-16T08:04:13.100Z,2.15
2023-05-16T08:06:40.808Z,1.63
2023-05-16T08:09:09.525Z,2.03
2023-05-16T08:11:36.483Z,2.08
2023-05-16T08:14:03.649Z,1.85
2023-05-16T08:16:31.313Z,1.63
2023-05-16T08:18:58.623Z,1.95
2023-05-16T08:21:25.326Z,2.05
2023-05-16T08:23:51.866Z,1.67
2023-05-16T08:26:18.858Z,1.92
2023-05-16T08:28:45.796Z,1.50
2023-05-16T08:31:12.248Z,1.20
2023-05-16T08:33:43.127Z,1.10
2023-05-16T08:36:10.153Z,2.50
2023-05-16T08:38:37.317Z,1.85
2023-05-16T08:41:04.240Z,1.23
2023-05-16T08:43:31.195Z,1.58
2023-05-16T08:45:57.757Z,1.45
2023-05-16T08:48:26.645Z,1.58
2023-05-16T08:50:56.708Z,1.67
2023-05-16T08:53:34.505Z,1.67
2023-05-16T08:56:01.754Z,1.90
2023-05-16T08:58:30.390Z,2.08
2023-05-16T09:03:25.219Z,1.38
2023-05-16T09:05:52.587Z,1.27
2023-05-16T09:08:20.574Z,1.33
2023-05-16T09:10:47.006Z,1.75
2023-05-16T09:13:13.958Z,1.55
2023-05-16T09:15:41.223Z,2.33
2023-05-16T09:18:14.263Z,1.30
2023-05-16T09:20:50.111Z,1.10
2023-05-16T09:23:24.706Z,1.30
2023-05-16T09:25:53.537Z,1.27
2023-05-16T09:28:20.998Z,1.35
2023-05-16T09:30:47.951Z,1.20
2023-05-16T09:33:16.590Z,1.35
2023-05-16T09:35:45.316Z,6.80
2023-05-16T09:38:18.343Z,1.48
2023-05-16T09:40:46.536Z,1.92
2023-05-16T09:43:18.959Z,1.88
2023-05-16T09:45:49.349Z,1.10
2023-05-16T09:48:17.450Z,1.45
2023-05-16T09:50:57.569Z,1.38
2023-05-16T09:53:30.182Z,0.88
2023-05-16T09:56:08.332Z,1.48
2023-05-16T09:58:38.143Z,1.23
2023-05-16T10:01:05.962Z,1.42
2023-05-16T10:03:34.951Z,1.10
2023-05-16T10:06:05.743Z,1.45
2023-05-16T10:08:36.373Z,0.90
2023-05-16T10:11:04.956Z,0.98
2023-05-16T10:16:08.559Z,1.20
2023-05-16T10:18:36.484Z,0.80
2023-05-16T10:21:11.855Z,1.15
2023-05-16T10:23:42.636Z,1.00
2023-05-16T10:26:11.781Z,0.95
2023-05-16T10:28:39.965Z,1.85
2023-05-16T10:31:08.371Z,0.88
2023-05-16T10:33:42.957Z,0.88
2023-05-16T10:36:11.227Z,1.10
2023-05-16T10:38:39.014Z,1.05
2023-05-16T10:41:07.023Z,1.10
2023-05-16T10:43:33.796Z,1.25
2023-05-16T10:46:16.566Z,1.30
2023-05-16T10:48:42.986Z,1.02
2023-05-16T10:51:39.291Z,1.00
2023-05-16T10:54:15.564Z,1.80
2023-05-16T10:56:43.572Z,1.05
2023-05-16T10:59:27.299Z,0.80
2023-05-16T11:01:57.550Z,0.80
2023-05-16T11:04:24.214Z,1.10
2023-05-16T11:06:53.460Z,1.63
2023-05-16T11:09:23.583Z,1.10
2023-05-16T11:11:59.362Z,1.00
2023-05-16T11:14:25.897Z,1.10
2023-05-16T11:17:11.076Z,1.17
2023-05-16T11:19:45.426Z,1.00
2023-05-16T11:22:22.893Z,0.80
2023-05-16T11:24:52.303Z,1.27
2023-05-16T11:27:28.930Z,1.13
2023-05-16T11:30:02.007Z,1.20
2023-05-16T11:32:30.876Z,1.55
2023-05-16T11:34:58.148Z,1.30
2023-05-16T11:37:25.929Z,1.27
2023-05-16T11:39:52.544Z,1.30
2023-05-16T11:42:19.328Z,1.27
2023-05-16T11:44:46.099Z,1.17
2023-05-16T11:47:12.720Z,1.25
2023-05-16T11:49:39.636Z,1.15
2023-05-16T11:52:08.532Z,1.15
2023-05-16T11:54:35.184Z,1.25
2023-05-16T11:57:02.207Z,1.02
2023-05-16T11:59:30.030Z,1.10
2023-05-16T12:01:56.549Z,1.63
2023-05-16T12:04:23.575Z,0.93
2023-05-16T12:07:00.148Z,1.58
2023-05-16T12:09:29.264Z,1.30
2023-05-16T12:11:55.988Z,1.60
2023-05-16T12:14:23.858Z,1.27
2023-05-16T12:16:52.912Z,1.15
2023-05-16T12:19:20.349Z,1.27
2023-05-16T12:21:46.948Z,1.38
2023-05-16T12:24:14.692Z,1.30
2023-05-16T12:26:42.465Z,1.17
2023-05-16T12:29:09.054Z,1.27
2023-05-16T12:31:41.979Z,1.13
2023-05-16T12:34:21.901Z,1.52
2023-05-16T12:36:51.906Z,1.92
2023-05-16T12:39:18.635Z,1.00
2023-05-16T12:41:45.236Z,1.10
2023-05-16T12:44:18.025Z,0.93
2023-05-16T12:46:50.286Z,1.65
2023-05-16T12:49:20.926Z,1.23
2023-05-16T12:51:56.023Z,1.20
2023-05-16T12:54:23.020Z,1.00
2023-05-16T12:56:49.762Z,1.10
2023-05-16T12:59:16.688Z,1.30
2023-05-16T13:01:44.494Z,1.00
2023-05-16T13:04:16.851Z,0.90
2023-05-16T13:06:57.571Z,1.40
2023-05-16T13:09:24.689Z,0.98
2023-05-16T13:11:51.264Z,0.90
2023-05-16T13:14:18.737Z,1.30
2023-05-16T13:16:45.954Z,1.08
2023-05-16T13:19:12.612Z,2.42
2023-05-16T13:21:39.029Z,1.00
2023-05-16T13:24:06.019Z,0.88
2023-05-16T13:26:32.741Z,1.10
2023-05-16T13:28:59.526Z,1.05
2023-05-16T13:31:26.044Z,1.27
2023-05-16T13:33:52.690Z,1.25
2023-05-16T13:36:19.153Z,1.20
2023-05-16T13:38:45.640Z,0.65
2023-05-16T13:41:12.246Z,0.75
2023-05-16T13:43:40.202Z,0.98
2023-05-16T13:46:07.269Z,1.40
2023-05-16T13:48:33.868Z,0.90
2023-05-16T13:51:00.278Z,0.80
2023-05-16T13:53:26.956Z,1.23
2023-05-16T13:55:53.726Z,0.80
2023-05-16T13:58:20.386Z,1.00
2023-05-16T14:00:48.560Z,1.05
2023-05-16T14:03:15.405Z,1.05
2023-05-16T14:05:42.605Z,1.30
2023-05-16T14:08:09.047Z,0.88
2023-05-16T14:10:35.651Z,1.40
2023-05-16T14:13:02.469Z,1.20
2023-05-16T14:15:29.150Z,1.00
2023-05-16T14:17:55.841Z,1.63
2023-05-16T14:20:22.833Z,1.35
2023-05-16T14:22:49.285Z,1.52
2023-05-16T14:25:15.844Z,1.25
2023-05-16T14:27:42.291Z,1.02
2023-05-16T14:30:09.538Z,1.30
2023-05-16T14:32:36.327Z,0.98
2023-05-16T14:35:05.258Z,1.20
2023-05-16T14:37:31.831Z,1.20
2023-05-16T14:39:59.847Z,1.40
2023-05-16T14:42:26.754Z,2.00
2023-05-16T14:44:53.263Z,1.00
2023-05-16T14:47:19.941Z,1.27
2023-05-16T14:49:46.409Z,1.65
2023-05-16T14:52:13.031Z,1.45
2023-05-16T14:54:41.333Z,1.33
2023-05-16T14:57:08.362Z,1.60
2023-05-16T14:59:34.776Z,1.15
2023-05-16T15:02:01.389Z,1.20
2023-05-16T15:04:28.873Z,1.30
2023-05-16T15:06:55.944Z,1.48
2023-05-16T15:09:22.636Z,2.08
2023-05-16T15:11:49.116Z,2.58
2023-05-16T15:14:15.972Z,1.83
2023-05-16T15:16:43.434Z,1.90
2023-05-16T15:19:10.141Z,2.53
2023-05-16T15:21:37.230Z,1.80
2023-05-16T15:24:03.763Z,1.38
2023-05-16T15:26:31.077Z,1.60
2023-05-16T15:28:57.948Z,1.20
2023-05-16T15:31:24.408Z,1.17
2023-05-16T15:33:51.179Z,1.20
2023-05-16T15:36:17.722Z,1.30
2023-05-16T15:38:45.622Z,1.80
2023-05-16T15:43:42.512Z,1.73
2023-05-16T15:46:11.091Z,1.23
2023-05-16T15:51:04.976Z,1.60
2023-05-16T15:53:31.405Z,1.75
2023-05-16T15:55:57.882Z,1.35
2023-05-16T15:58:24.331Z,1.67
2023-05-16T16:00:51.186Z,1.75
2023-05-16T16:03:17.710Z,1.42
2023-05-16T16:05:44.239Z,1.80
2023-05-16T16:08:10.784Z,1.70
2023-05-16T16:10:37.512Z,1.83
2023-05-16T16:13:04.667Z,1.55
2023-05-16T16:15:33.502Z,1.67
2023-05-16T16:18:00.812Z,1.73
2023-05-16T16:20:27.723Z,1.88
2023-05-16T16:22:54.344Z,1.55
2023-05-16T16:25:20.813Z,1.60
2023-05-16T16:27:47.217Z,1.33
2023-05-16T16:30:13.769Z,1.30
2023-05-16T16:32:41.148Z,1.42
2023-05-16T16:35:07.925Z,1.75
2023-05-16T16:37:34.869Z,1.50
2023-05-16T16:40:01.508Z,1.40
2023-05-16T16:42:30.380Z,1.40
2023-05-16T16:44:57.243Z,1.50
2023-05-16T16:47:25.285Z,1.63
2023-05-16T16:50:01.449Z,1.75
2023-05-16T16:52:28.280Z,1.58
2023-05-16T16:54:57.797Z,1.60
2023-05-16T16:57:24.409Z,1.60
2023-05-16T16:59:51.196Z,1.63
2023-05-16T17:02:19.080Z,1.73
2023-05-16T17:04:45.537Z,1.70
2023-05-16T17:07:11.987Z,1.40
2023-05-16T17:09:42.103Z,1.60
2023-05-16T17:12:14.840Z,1.70
2023-05-16T17:14:42.834Z,2.22
2023-05-16T17:17:09.316Z,1.88
2023-05-16T17:19:35.881Z,1.90
2023-05-16T17:22:02.493Z,2.20
2023-05-16T17:24:29.110Z,2.03
2023-05-16T17:26:57.191Z,2.38
2023-05-16T17:29:23.962Z,1.83
2023-05-16T17:31:50.687Z,1.77
2023-05-16T17:34:17.310Z,2.20
2023-05-16T17:36:43.788Z,2.38
2023-05-16T17:39:10.926Z,2.78
2023-05-16T17:41:38.657Z,2.38
2023-05-16T17:44:06.966Z,2.33
2023-05-16T17:46:34.948Z,2.28
2023-05-16T17:49:01.433Z,2.47
2023-05-16T17:51:28.356Z,2.22
2023-05-16T17:53:54.899Z,3.00
2023-05-16T17:56:22.667Z,2.38
2023-05-16T17:58:49.199Z,2.47
2023-05-16T18:01:15.603Z,2.53
2023-05-16T18:03:43.414Z,2.60
2023-05-16T18:06:11.607Z,3.13
2023-05-16T18:08:38.425Z,2.83
2023-05-16T18:11:05.311Z,3.28
2023-05-16T18:13:33.052Z,3.03
2023-05-16T18:15:59.705Z,4.22
2023-05-16T18:18:32.345Z,6.72
2023-05-16T18:20:59.800Z,22.38
2023-05-16T18:23:28.860Z,23.92
2023-05-16T18:25:55.383Z,8.25
2023-05-16T18:28:23.062Z,6.53
2023-05-16T18:30:49.437Z,7.20
2023-05-16T18:33:16.311Z,5.35
2023-05-16T18:35:43.131Z,4.97
2023-05-16T18:38:20.307Z,4.70
2023-05-16T18:40:55.254Z,3.80
2023-05-16T18:43:22.719Z,6.55
2023-05-16T18:45:50.603Z,4.55
2023-05-16T18:48:17.707Z,4.82
2023-05-16T18:50:45.000Z,3.45
2023-05-16T18:53:12.306Z,3.53
2023-05-16T18:55:40.305Z,3.85
2023-05-16T18:58:07.036Z,3.83
2023-05-16T19:00:34.502Z,3.50
2023-05-16T19:03:01.629Z,3.83
2023-05-16T19:05:28.547Z,4.00
2023-05-16T19:07:55.234Z,4.53
2023-05-16T19:10:22.292Z,3.85
2023-05-16T19:12:49.334Z,3.72
2023-05-16T19:15:15.938Z,3.60
2023-05-16T19:17:42.659Z,3.90
2023-05-16T19:20:10.812Z,3.80
2023-05-16T19:22:37.677Z,3.80
2023-05-16T19:25:06.927Z,3.20
2023-05-16T19:27:33.658Z,3.90
2023-05-16T19:30:01.486Z,3.67
2023-05-16T19:32:30.237Z,4.10
2023-05-16T19:34:57.453Z,3.60
2023-05-16T19:37:24.596Z,3.13
2023-05-16T19:39:52.411Z,3.13
2023-05-16T19:42:18.831Z,3.53
2023-05-16T19:44:45.375Z,3.00
2023-05-16T19:47:12.057Z,2.83
2023-05-16T19:49:38.754Z,3.40
2023-05-16T19:52:09.031Z,3.45
2023-05-16T19:54:35.397Z,4.03
2023-05-16T19:57:04.251Z,3.40
2023-05-16T19:59:32.758Z,3.05
2023-05-16T20:02:02.321Z,2.90
2023-05-16T20:04:29.060Z,3.47
2023-05-16T20:06:55.948Z,2.75
2023-05-16T20:09:22.479Z,2.40
2023-05-16T20:11:49.616Z,3.38
2023-05-16T20:14:16.080Z,3.40
2023-05-16T20:16:43.177Z,3.70
2023-05-16T20:19:09.944Z,3.00
2023-05-16T20:21:37.026Z,7.40
2023-05-16T20:24:06.827Z,6.07
2023-05-16T20:26:33.744Z,8.90
2023-05-16T20:29:02.656Z,4.20
2023-05-16T20:31:29.706Z,3.20
2023-05-16T20:33:56.173Z,3.28
2023-05-16T20:36:23.922Z,3.30
2023-05-16T20:38:51.777Z,3.17
2023-05-16T20:41:21.875Z,3.05
2023-05-16T20:43:50.465Z,2.70
2023-05-16T20:46:17.124Z,7.65
2023-05-16T20:48:43.942Z,8.07
2023-05-16T20:51:10.690Z,18.45
2023-05-16T20:53:38.339Z,6.80
2023-05-16T20:56:05.143Z,6.37
2023-05-16T20:58:32.184Z,2.97
2023-05-16T21:00:58.634Z,2.88
2023-05-16T21:03:25.467Z,2.40
2023-05-16T21:05:54.589Z,2.25
2023-05-16T21:08:21.028Z,2.58
2023-05-16T21:10:47.435Z,2.63
2023-05-16T21:13:13.949Z,2.40
2023-05-16T21:15:40.446Z,3.03
2023-05-16T21:18:07.168Z,3.83
2023-05-16T21:20:33.845Z,4.05
2023-05-16T21:23:00.805Z,2.90
2023-05-16T21:25:28.686Z,2.80
2023-05-16T21:27:56.238Z,2.83
2023-05-16T21:30:22.973Z,2.97
2023-05-16T21:32:50.869Z,2.45
2023-05-16T21:35:17.429Z,2.88
2023-05-16T21:37:43.867Z,2.88
2023-05-16T21:40:16.660Z,2.70
2023-05-16T21:42:43.326Z,2.85
2023-05-16T21:45:15.673Z,2.83
2023-05-16T21:47:43.184Z,2.72
2023-05-16T21:50:13.111Z,2.70
2023-05-16T21:52:39.984Z,2.80
2023-05-16T21:55:08.981Z,2.80
2023-05-16T21:57:35.975Z,3.03
2023-05-16T22:00:09.771Z,3.20
2023-05-16T22:02:37.241Z,3.13
2023-05-16T22:05:04.782Z,2.83
2023-05-16T22:07:31.689Z,2.50
2023-05-16T22:10:01.741Z,3.40
2023-05-16T22:12:28.222Z,3.28
2023-05-16T22:14:54.998Z,2.83
2023-05-16T22:17:21.531Z,3.25
2023-05-16T22:19:48.278Z,2.80
2023-05-16T22:22:15.067Z,2.90
2023-05-16T22:24:41.764Z,2.88
2023-05-16T22:27:08.168Z,2.92
2023-05-16T22:29:38.176Z,2.67
2023-05-16T22:32:10.037Z,2.42
2023-05-16T22:34:42.503Z,2.92
2023-05-16T22:37:09.580Z,2.70
2023-05-16T22:39:36.348Z,3.30
2023-05-16T22:42:03.747Z,3.03
2023-05-16T22:44:30.256Z,2.65
2023-05-16T22:47:03.650Z,3.30
2023-05-16T22:49:30.056Z,3.42
2023-05-16T22:52:00.605Z,2.95
2023-05-16T22:54:27.043Z,2.33
2023-05-16T22:56:53.749Z,3.15
2023-05-16T22:59:20.184Z,3.00
2023-05-16T23:01:48.754Z,2.80
2023-05-16T23:06:44.750Z,2.47
2023-05-16T23:09:11.563Z,2.72
2023-05-16T23:11:40.469Z,2.58
2023-05-16T23:14:06.861Z,2.40
2023-05-16T23:16:33.295Z,3.00
2023-05-16T23:19:00.186Z,2.70
2023-05-16T23:21:30.596Z,2.70
2023-05-16T23:23:57.141Z,2.53
2023-05-16T23:26:23.489Z,2.40
2023-05-16T23:28:50.301Z,3.08
2023-05-16T23:31:17.485Z,3.10
2023-05-16T23:33:43.919Z,2.33
2023-05-16T23:36:11.480Z,2.58
2023-05-16T23:38:38.448Z,2.55
2023-05-16T23:41:05.095Z,2.58
2023-05-16T23:43:31.553Z,2.58
2023-05-16T23:45:58.238Z,2.60
2023-05-16T23:48:24.851Z,2.67
2023-05-16T23:50:51.864Z,2.20
2023-05-16T23:53:18.304Z,3.08
2023-05-16T23:55:47.193Z,2.78
2023-05-16T23:58:13.647Z,3.08
